Time;durP1;ratioP1;P1;durP2;ratioP2;P2;SDS_P1;SDS_P2;PMS_P1;PMS_P2;Temp;Humidity;BMP_temperature;BMP_pressure;BME280_temperature;BME280_humidity;BME280_pressure;Samples;Min_cycle;Max_cycle;Signal;HPM_P1;HPM_P2
2022/05/22 00:01:42;;;;;;;3.75;3.17;;;;;;;20.11;50.31;95810.63;4927417;29;20225;-80
2022/05/22 00:04:10;;;;;;;3.67;3.08;;;;;;;20.11;50.18;95808.81;4930816;29;20210;-82
2022/05/22 00:06:37;;;;;;;3.83;2.75;;;;;;;20.02;50.78;95810.97;4923754;29;20202;-82
2022/05/22 00:09:04;;;;;;;2.40;2.20;;;;;;;20.09;50.36;95803.00;4923257;28;20869;-82
2022/05/22 00:11:31;;;;;;;6.13;2.90;;;;;;;20.05;50.79;95801.88;4930001;29;20280;-80
2022/05/22 00:13:57;;;;;;;3.28;2.60;;;;;;;19.90;50.49;95797.13;4925873;29;21764;-80
2022/05/22 00:16:41;;;;;;;3.10;2.58;;;;;;;19.95;50.18;95799.84;4934306;29;20201;-80
2022/05/22 00:19:10;;;;;;;2.97;2.63;;;;;;;19.76;49.55;95803.63;4930091;28;20226;-83
2022/05/22 00:21:37;;;;;;;3.55;2.60;;;;;;;19.81;48.79;95800.34;4930280;29;20217;-81
2022/05/22 00:24:05;;;;;;;2.72;2.50;;;;;;;19.80;48.32;95801.34;4923084;29;20199;-82
2022/05/22 00:26:31;;;;;;;3.72;2.10;;;;;;;19.77;47.62;95797.38;4930920;29;20194;-82
2022/05/22 00:28:58;;;;;;;3.03;1.90;;;;;;;19.83;47.54;95799.06;4930919;28;20238;-82
2022/05/22 00:31:24;;;;;;;2.42;1.98;;;;;;;19.75;47.60;95794.19;4922862;29;20740;-80
2022/05/22 00:33:51;;;;;;;4.50;2.13;;;;;;;19.76;47.08;95787.94;4931117;29;20232;-82
2022/05/22 00:36:19;;;;;;;2.42;2.15;;;;;;;19.76;47.18;95789.78;4923311;29;20244;-82
2022/05/22 00:38:45;;;;;;;2.17;1.98;;;;;;;19.78;47.64;95782.50;4929929;28;20759;-81
2022/05/22 00:41:13;;;;;;;2.70;1.90;;;;;;;19.77;47.13;95780.91;4922083;29;20250;-81
2022/05/22 00:43:42;;;;;;;1.90;1.77;;;;;;;19.50;47.33;95772.72;4931619;29;20296;-82
2022/05/22 00:46:11;;;;;;;2.80;2.30;;;;;;;19.56;47.18;95772.63;4925673;29;20205;-82
2022/05/22 00:48:38;;;;;;;3.40;2.20;;;;;;;19.60;46.99;95770.38;4934684;28;20314;-80
2022/05/22 00:51:09;;;;;;;2.40;1.83;;;;;;;19.50;47.39;95763.09;4925021;29;20229;-82
2022/05/22 00:53:41;;;;;;;2.47;1.90;;;;;;;19.45;47.33;95751.69;4934539;29;20218;-79
2022/05/22 00:56:11;;;;;;;2.45;1.92;;;;;;;19.40;47.25;95756.81;4925834;29;20256;-82
2022/05/22 00:58:37;;;;;;;2.88;2.20;;;;;;;19.38;48.07;95753.63;4933655;28;20861;-82
2022/05/22 01:01:04;;;;;;;2.45;1.95;;;;;;;19.53;47.67;95762.63;4928836;29;20269;-80
2022/05/22 01:03:31;;;;;;;4.75;1.92;;;;;;;19.46;48.06;95761.91;4934082;29;20201;-82
2022/05/22 01:06:03;;;;;;;2.13;1.90;;;;;;;19.57;47.51;95761.16;4923284;29;20216;-81
2022/05/22 01:08:31;;;;;;;2.25;1.80;;;;;;;19.64;47.75;95764.44;4929464;28;20233;-82
2022/05/22 01:11:02;;;;;;;2.60;2.10;;;;;;;19.65;47.91;95766.03;4924880;29;20316;-82
2022/05/22 01:13:34;;;;;;;2.00;1.88;;;;;;;19.74;47.60;95766.47;4925590;29;20226;-82
2022/05/22 01:16:03;;;;;;;2.15;1.92;;;;;;;19.68;47.44;95764.78;4925628;29;20273;-81
2022/05/22 01:18:30;;;;;;;2.28;2.08;;;;;;;19.55;48.20;95765.03;4925451;28;20241;-81
2022/05/22 01:20:56;;;;;;;2.35;2.10;;;;;;;19.63;47.79;95762.03;4932850;29;20221;-81
2022/05/22 01:23:25;;;;;;;4.57;2.10;;;;;;;19.67;48.03;95765.78;4933045;29;20265;-82
2022/05/22 01:25:51;;;;;;;4.03;1.90;;;;;;;19.71;47.70;95768.75;4933696;29;20288;-80
2022/05/22 01:28:20;;;;;;;3.65;1.95;;;;;;;19.61;48.85;95777.97;4933200;28;20642;-82
2022/05/22 01:30:49;;;;;;;2.35;1.92;;;;;;;19.62;49.15;95782.19;4933479;29;20658;-81
2022/05/22 01:33:16;;;;;;;2.75;2.10;;;;;;;19.66;49.31;95780.69;4931263;29;20206;-82
2022/05/22 01:35:42;;;;;;;2.50;2.30;;;;;;;19.68;50.11;95770.00;4933836;29;20205;-81
2022/05/22 01:38:09;;;;;;;2.42;2.20;;;;;;;19.53;51.15;95775.69;4928729;28;20238;-80
2022/05/22 01:40:37;;;;;;;2.92;2.13;;;;;;;19.54;50.34;95773.88;4929643;29;20719;-80
2022/05/22 01:43:04;;;;;;;2.22;2.05;;;;;;;19.54;50.75;95771.25;4922075;29;20688;-81
2022/05/22 01:45:31;;;;;;;2.30;2.10;;;;;;;19.55;51.38;95768.44;4929361;29;20201;-80
2022/05/22 01:47:58;;;;;;;3.25;2.40;;;;;;;19.57;51.29;95768.19;4933137;28;20613;-82
2022/05/22 01:50:25;;;;;;;2.67;2.15;;;;;;;19.36;51.15;95756.47;4932547;29;20693;-82
2022/05/22 01:52:51;;;;;;;4.20;2.40;;;;;;;19.27;50.11;95755.22;4933101;29;20232;-81
2022/05/22 01:55:18;;;;;;;1.98;1.85;;;;;;;19.16;50.55;95756.00;4937873;29;20249;-80
2022/05/22 01:57:45;;;;;;;2.25;2.05;;;;;;;19.19;51.08;95755.56;4936328;28;20205;-81
2022/05/22 02:00:16;;;;;;;4.57;1.98;;;;;;;19.14;50.48;95752.81;4937255;29;20272;-80
2022/05/22 02:02:43;;;;;;;2.20;2.00;;;;;;;19.05;50.48;95741.91;4936164;29;20213;-79
2022/05/22 02:05:10;;;;;;;3.28;1.92;;;;;;;19.01;50.13;95743.41;4929827;29;20224;-82
2022/05/22 02:10:22;;;;;;;2.53;2.10;;;;;;;18.91;50.00;95735.31;4929035;29;20303;-82
2022/05/22 02:12:51;;;;;;;1.98;1.83;;;;;;;18.88;49.67;95735.75;4935118;29;20229;-82
2022/05/22 02:15:19;;;;;;;2.30;2.10;;;;;;;18.91;49.54;95733.50;4931413;29;20197;-82
2022/05/22 02:17:45;;;;;;;2.83;2.33;;;;;;;18.81;49.42;95735.09;4934929;28;20501;-82
2022/05/22 02:20:12;;;;;;;2.75;2.10;;;;;;;18.76;49.65;95732.34;4925016;29;20300;-80
2022/05/22 02:22:40;;;;;;;2.25;1.98;;;;;;;18.82;49.88;95734.84;4933149;29;20280;-82
2022/05/22 02:25:08;;;;;;;4.40;1.80;;;;;;;18.77;49.61;95729.50;4929638;29;20224;-81
2022/05/22 02:27:34;;;;;;;2.05;1.80;;;;;;;18.84;50.05;95729.41;4936084;29;20209;-82
2022/05/22 02:30:03;;;;;;;1.88;1.73;;;;;;;18.90;49.50;95729.28;4932530;28;20752;-80
2022/05/22 02:32:30;;;;;;;2.47;1.77;;;;;;;18.90;49.08;95718.06;4931826;29;20209;-81
2022/05/22 02:34:56;;;;;;;2.88;1.95;;;;;;;18.79;49.46;95722.25;4936669;29;20201;-81
2022/05/22 02:37:23;;;;;;;2.72;1.98;;;;;;;18.86;49.27;95720.31;4930235;29;20221;-81
2022/05/22 02:39:49;;;;;;;3.08;1.83;;;;;;;18.74;49.69;95724.72;4934523;28;20241;-81
2022/05/22 02:42:16;;;;;;;2.55;1.77;;;;;;;18.54;49.71;95714.56;4930891;29;20203;-81
2022/05/22 02:44:42;;;;;;;2.95;1.85;;;;;;;18.71;49.84;95709.53;4933774;29;20222;-82
2022/05/22 02:47:10;;;;;;;2.95;1.80;;;;;;;18.68;49.45;95707.34;4932257;29;20255;-82
2022/05/22 02:49:36;;;;;;;3.10;2.10;;;;;;;18.74;50.05;95709.09;4932618;28;20653;-82
2022/05/22 02:52:03;;;;;;;2.28;2.08;;;;;;;18.77;49.63;95708.63;4931532;29;20218;-82
2022/05/22 02:54:29;;;;;;;2.42;1.98;;;;;;;18.72;50.01;95705.91;4931207;29;20197;-80
2022/05/22 02:56:56;;;;;;;5.00;2.42;;;;;;;18.80;50.39;95705.59;4936868;29;20256;-82
2022/05/22 02:59:22;;;;;;;3.38;2.38;;;;;;;18.87;50.29;95711.47;4935101;28;20241;-80
2022/05/22 03:01:48;;;;;;;3.08;1.92;;;;;;;18.83;51.06;95712.97;4933643;29;20209;-80
2022/05/22 03:04:16;;;;;;;2.65;2.10;;;;;;;18.87;51.36;95715.91;4929315;29;20281;-82
2022/05/22 03:06:43;;;;;;;2.95;1.80;;;;;;;18.82;52.24;95710.59;4928167;29;20260;-81
2022/05/22 03:09:13;;;;;;;4.18;2.00;;;;;;;18.82;52.43;95719.19;4935566;28;20361;-81
2022/05/22 03:11:40;;;;;;;2.45;2.15;;;;;;;18.79;53.00;95722.25;4935038;29;20233;-82
2022/05/22 03:14:07;;;;;;;3.17;2.38;;;;;;;18.62;53.22;95721.31;4928396;29;20201;-82
2022/05/22 03:16:34;;;;;;;2.50;2.30;;;;;;;18.67;53.10;95715.41;4932678;29;20268;-82
2022/05/22 03:19:01;;;;;;;2.63;2.42;;;;;;;18.67;53.19;95715.41;4935875;28;20237;-82
2022/05/22 03:21:29;;;;;;;2.50;2.30;;;;;;;18.72;52.96;95721.56;4927506;29;20217;-82
2022/05/22 03:23:56;;;;;;;3.33;2.20;;;;;;;18.55;53.75;95708.34;4936159;29;20249;-81
2022/05/22 03:26:22;;;;;;;3.42;2.25;;;;;;;18.54;53.87;95711.97;4927752;29;20367;-82
2022/05/22 03:28:49;;;;;;;2.83;2.35;;;;;;;18.56;53.46;95712.53;4935615;28;20288;-80
2022/05/22 03:31:16;;;;;;;2.67;2.30;;;;;;;18.64;54.18;95708.84;4926812;29;20566;-82
2022/05/22 03:33:42;;;;;;;2.70;2.10;;;;;;;18.56;54.50;95699.50;4936144;29;20201;-82
2022/05/22 03:36:09;;;;;;;2.15;1.95;;;;;;;18.64;54.08;95698.41;4927293;29;20631;-79
2022/05/22 03:38:36;;;;;;;2.42;2.05;;;;;;;18.61;54.26;95709.28;4935645;28;20221;-81
2022/05/22 03:41:03;;;;;;;4.45;2.70;;;;;;;18.58;54.50;95702.69;4933745;29;22006;-80
2022/05/22 03:43:30;;;;;;;2.47;2.28;;;;;;;18.58;54.10;95699.28;4935829;29;20601;-80
2022/05/22 03:45:56;;;;;;;2.60;2.40;;;;;;;18.45;54.57;95695.06;4935296;29;20225;-82
2022/05/22 03:48:22;;;;;;;3.50;2.83;;;;;;;18.39;55.43;95695.94;4926878;28;20253;-81
2022/05/22 03:50:52;;;;;;;2.75;2.55;;;;;;;18.39;55.56;95692.53;4925390;29;20656;-80
2022/05/22 03:53:18;;;;;;;2.42;2.22;;;;;;;18.30;55.39;95692.03;4935899;29;20210;-82
2022/05/22 03:55:47;;;;;;;2.40;2.20;;;;;;;18.35;55.35;95696.59;4934305;29;20681;-80
2022/05/22 03:58:16;;;;;;;2.58;2.35;;;;;;;18.35;54.80;95689.56;4935407;28;20611;-80
2022/05/22 04:00:43;;;;;;;2.53;2.03;;;;;;;18.26;54.93;95686.50;4928150;29;20222;-82
2022/05/22 04:03:09;;;;;;;3.40;1.90;;;;;;;18.39;54.11;95690.72;4926786;29;20201;-81
2022/05/22 04:05:36;;;;;;;3.85;2.40;;;;;;;18.37;54.23;95690.13;4926906;29;20285;-81
2022/05/22 04:08:02;;;;;;;2.42;2.22;;;;;;;18.40;54.20;95697.53;4925173;28;20237;-81
2022/05/22 04:10:30;;;;;;;3.72;2.70;;;;;;;18.53;54.09;95684.28;4934820;29;20221;-81
2022/05/22 04:12:58;;;;;;;4.53;3.28;;;;;;;18.61;53.25;95691.03;4925797;29;20210;-80
2022/05/22 04:15:25;;;;;;;3.75;3.45;;;;;;;18.58;53.71;95691.44;4926814;29;20219;-81
2022/05/22 04:17:51;;;;;;;7.93;3.40;;;;;;;18.70;52.27;95692.28;4926184;28;20214;-82
2022/05/22 04:20:19;;;;;;;2.58;2.38;;;;;;;18.82;50.24;95689.72;4934503;29;20217;-81
2022/05/22 04:25:30;;;;;;;3.03;2.15;;;;;;;18.79;49.75;95695.38;4935221;29;20298;-82
2022/05/22 04:27:58;;;;;;;2.65;2.40;;;;;;;18.76;49.21;95694.00;4925566;28;20270;-82
2022/05/22 04:30:24;;;;;;;3.47;2.30;;;;;;;18.81;49.39;95694.13;4933850;29;20281;-81
2022/05/22 04:32:52;;;;;;;2.75;2.08;;;;;;;18.81;49.39;95696.75;4926174;29;20257;-80
2022/05/22 04:35:20;;;;;;;2.45;2.25;;;;;;;18.86;49.55;95690.81;4926378;29;20201;-80
2022/05/22 04:37:47;;;;;;;2.28;1.98;;;;;;;18.92;49.44;95695.16;4934864;28;20198;-82
2022/05/22 04:40:14;;;;;;;4.70;2.25;;;;;;;18.83;49.23;95696.53;4928824;29;20710;-80
2022/05/22 04:42:41;;;;;;;2.40;2.20;;;;;;;18.77;48.82;95692.19;4923377;29;20206;-82
2022/05/22 04:45:11;;;;;;;3.35;2.53;;;;;;;18.72;49.64;95695.47;4929571;29;20222;-82
2022/05/22 04:47:38;;;;;;;3.13;2.20;;;;;;;18.84;49.63;95698.09;4931002;29;20241;-79
2022/05/22 04:50:06;;;;;;;2.78;2.47;;;;;;;18.91;50.50;95701.38;4929921;29;20229;-80
2022/05/22 04:52:33;;;;;;;3.08;2.60;;;;;;;18.96;50.41;95707.53;4922763;29;20277;-81
2022/05/22 04:54:59;;;;;;;5.30;2.63;;;;;;;19.10;49.65;95708.09;4930797;29;20298;-81
2022/05/22 04:57:26;;;;;;;2.70;2.33;;;;;;;19.22;49.23;95703.69;4929607;29;20197;-80
2022/05/22 04:59:52;;;;;;;2.45;2.25;;;;;;;19.20;49.76;95713.56;4931323;28;20230;-82
2022/05/22 05:02:20;;;;;;;2.67;2.45;;;;;;;19.14;50.04;95690.19;4924365;29;20222;-81
2022/05/22 05:04:46;;;;;;;2.50;2.30;;;;;;;19.12;49.66;95679.16;4930496;29;20230;-82
2022/05/22 05:07:13;;;;;;;2.65;2.42;;;;;;;19.11;49.12;95680.97;4928348;29;20681;-80
2022/05/22 05:09:39;;;;;;;2.88;2.20;;;;;;;19.00;49.09;95678.38;4933228;28;20293;-80
2022/05/22 05:12:06;;;;;;;4.65;2.40;;;;;;;18.93;49.30;95681.88;4929391;29;20198;-80
2022/05/22 05:14:33;;;;;;;2.50;2.30;;;;;;;18.94;49.50;95675.66;4921908;29;20277;-81
2022/05/22 05:16:59;;;;;;;4.05;2.30;;;;;;;18.91;49.68;95676.09;4933678;29;20259;-82
2022/05/22 05:19:27;;;;;;;4.00;2.20;;;;;;;18.79;49.66;95682.34;4926104;28;20225;-79
2022/05/22 05:21:56;;;;;;;2.92;2.20;;;;;;;18.75;49.12;95675.97;4929268;29;20206;-80
2022/05/22 05:24:23;;;;;;;3.15;2.20;;;;;;;18.62;48.60;95676.97;4920856;29;20257;-80
2022/05/22 05:26:50;;;;;;;5.10;2.33;;;;;;;18.59;48.55;95674.81;4928437;29;20234;-79
2022/05/22 05:29:17;;;;;;;3.65;2.10;;;;;;;18.70;48.02;95687.06;4927105;28;20596;-80
2022/05/22 05:31:44;;;;;;;5.90;2.08;;;;;;;18.94;52.17;95685.28;4932555;29;20276;-83
2022/05/22 05:34:10;;;;;;;3.72;2.10;;;;;;;19.38;51.35;95683.13;4923351;29;20213;-80
2022/05/22 05:36:39;;;;;;;2.95;2.00;;;;;;;19.81;49.67;95687.97;4922274;29;20658;-80
2022/05/22 05:39:06;;;;;;;3.75;1.75;;;;;;;20.17;49.59;95682.41;4926126;28;20229;-81
2022/05/22 05:41:35;;;;;;;2.45;1.80;;;;;;;20.28;48.41;95678.94;4925675;29;20277;-80
2022/05/22 05:44:05;;;;;;;3.42;1.77;;;;;;;20.21;45.99;95672.25;4929476;29;20208;-80
2022/05/22 05:46:32;;;;;;;2.30;1.92;;;;;;;20.54;46.57;95663.69;4929888;29;20661;-81
2022/05/22 05:48:58;;;;;;;3.40;2.00;;;;;;;20.72;45.73;95673.94;4929128;28;20226;-81
2022/05/22 05:51:25;;;;;;;1.95;1.73;;;;;;;20.52;43.62;95666.56;4927632;29;20229;-81
2022/05/22 05:53:53;;;;;;;2.05;1.70;;;;;;;20.37;44.71;95668.91;4931268;29;20666;-79
2022/05/22 05:56:19;;;;;;;3.42;1.55;;;;;;;20.29;44.72;95664.81;4927953;29;20189;-81
2022/05/22 05:58:46;;;;;;;1.95;1.60;;;;;;;20.35;44.62;95658.66;4931504;28;20601;-80
2022/05/22 06:01:12;;;;;;;3.13;1.92;;;;;;;20.28;44.73;95647.53;4933218;29;20280;-81
2022/05/22 06:03:39;;;;;;;2.67;1.90;;;;;;;20.48;43.35;95641.09;4932123;29;20269;-81
2022/05/22 06:06:07;;;;;;;2.08;1.70;;;;;;;20.40;42.92;95644.13;4924990;29;20233;-81
2022/05/22 06:08:34;;;;;;;1.90;1.65;;;;;;;20.39;44.12;95640.72;4929795;28;20319;-81
2022/05/22 06:11:03;;;;;;;4.28;1.90;;;;;;;20.47;43.84;95640.31;4924541;29;20280;-81
2022/05/22 06:13:29;;;;;;;1.65;1.55;;;;;;;20.63;42.28;95634.28;4933205;29;20205;-80
2022/05/22 06:15:56;;;;;;;3.45;1.83;;;;;;;20.85;44.68;95636.19;4933431;29;20193;-81
2022/05/22 06:18:22;;;;;;;2.95;1.50;;;;;;;20.79;42.66;95629.28;4932880;28;20292;-81
2022/05/22 06:20:49;;;;;;;4.43;1.70;;;;;;;20.88;43.12;95620.00;4932883;29;20714;-79
2022/05/22 06:23:15;;;;;;;1.88;1.73;;;;;;;20.60;41.00;95619.06;4932150;29;20233;-81
2022/05/22 06:25:44;;;;;;;2.67;1.50;;;;;;;20.65;42.66;95619.16;4923733;29;20301;-79
2022/05/22 06:28:12;;;;;;;1.60;1.50;;;;;;;20.67;43.13;95613.66;4927212;28;20322;-80
2022/05/22 06:30:39;;;;;;;2.42;1.65;;;;;;;20.78;44.12;95622.47;4932528;29;20229;-80
2022/05/22 06:33:07;;;;;;;3.58;1.50;;;;;;;20.96;42.43;95622.22;4925490;29;20577;-80
2022/05/22 06:35:34;;;;;;;3.38;1.85;;;;;;;20.89;42.11;95618.97;4934147;29;20285;-81
2022/05/22 06:38:01;;;;;;;5.00;2.00;;;;;;;20.77;42.29;95619.06;4929844;28;20677;-82
2022/05/22 06:40:26;;;;;;;5.40;1.75;;;;;;;20.88;43.90;95610.31;4936733;29;20221;-81
2022/05/22 06:42:53;;;;;;;6.00;1.90;;;;;;;21.08;44.25;95606.41;4934763;29;20221;-81
2022/05/22 06:45:24;;;;;;;1.58;1.38;;;;;;;21.06;43.39;95608.47;4931987;29;20230;-79
2022/05/22 06:47:51;;;;;;;2.30;1.52;;;;;;;20.86;43.64;95604.53;4934077;28;20210;-81
2022/05/22 06:50:20;;;;;;;3.22;1.73;;;;;;;20.91;44.08;95602.00;4930780;29;20288;-81
2022/05/22 06:52:49;;;;;;;4.78;1.50;;;;;;;21.23;44.17;95604.00;4936666;29;20214;-83
2022/05/22 06:55:16;;;;;;;4.95;1.98;;;;;;;21.53;43.02;95601.78;4932070;29;20205;-81
2022/05/22 06:57:55;;;;;;;3.30;1.77;;;;;;;21.42;41.29;95599.28;4934015;28;20257;-80
2022/05/22 07:00:27;;;;;;;2.85;1.70;;;;;;;21.42;42.19;95596.66;4936409;29;20285;-84
2022/05/22 07:02:54;;;;;;;2.65;1.80;;;;;;;21.51;43.02;95593.38;4935376;29;20206;-86
2022/05/22 07:05:21;;;;;;;2.00;1.65;;;;;;;21.38;42.31;95589.28;4937746;29;20244;-84
2022/05/22 07:14:44;;;;;;;2.80;1.60;;;;;;;21.27;41.73;95586.78;4870274;29;20206;-84
2022/05/22 07:17:43;;;;;;;3.53;1.60;;;;;;;21.27;41.81;95592.03;4928018;29;20230;-84
2022/05/22 07:20:10;;;;;;;6.07;2.03;;;;;;;21.26;42.37;95586.00;4939411;23;20674;-85
2022/05/22 07:22:37;;;;;;;4.18;1.75;;;;;;;21.36;42.49;95593.16;4932993;29;20206;-84
2022/05/22 07:25:05;;;;;;;2.80;1.60;;;;;;;21.51;41.93;95588.13;4925699;29;20814;-85
2022/05/22 07:44:15;;;;;;;5.55;1.73;;;;;;;22.41;42.41;95573.56;4922477;29;20314;-82
2022/05/22 07:46:56;;;;;;;2.45;1.60;;;;;;;22.53;40.20;95574.16;4929950;29;20261;-83
2022/05/22 07:52:31;;;;;;;3.47;1.80;;;;;;;22.81;39.45;95562.56;4981436;28;20682;-85
2022/05/22 07:55:34;;;;;;;2.22;1.35;;;;;;;22.99;38.93;95564.78;4980461;28;20747;-83
2022/05/22 08:01:39;;;;;;;3.67;1.88;;;;;;;23.32;39.67;95563.63;4973006;28;20223;-84
2022/05/22 08:04:15;;;;;;;2.58;1.60;;;;;;;23.41;38.59;95564.72;4977668;28;20212;-83
2022/05/22 08:07:03;;;;;;;2.03;1.60;;;;;;;23.24;38.07;95560.69;4977122;28;20224;-84
2022/05/22 08:09:32;;;;;;;3.33;1.67;;;;;;;23.08;37.97;95562.47;4968565;28;20245;-84
2022/05/22 08:11:59;;;;;;;2.50;1.50;;;;;;;22.96;37.48;95564.50;4974932;28;20219;-84
2022/05/22 08:14:26;;;;;;;1.45;1.27;;;;;;;23.26;39.11;95559.41;4974658;28;20203;-84
2022/05/22 08:16:54;;;;;;;4.75;1.50;;;;;;;23.60;38.07;95554.56;4975777;28;20207;-83
2022/05/22 08:19:26;;;;;;;7.85;2.05;;;;;;;23.77;37.27;95556.97;4965066;28;20228;-80
2022/05/22 08:25:27;;;;;;;7.97;2.55;;;;;;;24.05;38.88;95542.53;4910637;28;20222;-84
2022/05/22 08:30:59;;;;;;;4.43;2.03;;;;;;;24.20;36.65;95536.50;4970967;28;20232;-84
2022/05/22 08:34:02;;;;;;;2.67;1.67;;;;;;;24.31;37.51;95533.63;4972524;28;20291;-84
2022/05/22 08:36:37;;;;;;;2.03;1.35;;;;;;;24.20;35.75;95524.13;4970747;28;20287;-85
2022/05/22 08:42:39;;;;;;;4.40;1.60;;;;;;;24.25;36.76;95525.97;4971144;28;20239;-84
2022/05/22 08:45:33;;;;;;;1.80;1.60;;;;;;;24.05;34.95;95524.13;4969687;28;20857;-84
2022/05/22 08:51:10;;;;;;;2.65;1.90;;;;;;;24.02;35.40;95519.41;4961504;28;20736;-84
2022/05/22 08:53:47;;;;;;;5.63;2.80;;;;;;;23.98;35.92;95513.06;4972041;28;20212;-83
2022/05/22 08:59:26;;;;;;;3.70;1.73;;;;;;;24.64;37.04;95516.47;4974823;28;20298;-84
2022/05/22 09:04:46;;;;;;;2.92;2.47;;;;;;;25.04;35.75;95514.81;4966442;28;20227;-83
2022/05/22 09:14:19;;;;;;;2.30;1.70;;;;;;;25.43;34.28;95510.41;4934440;29;20193;-84
2022/05/22 09:23:26;;;;;;;1.88;1.40;;;;;;;25.76;35.83;95510.81;4973509;28;20203;-84
2022/05/22 09:26:26;;;;;;;1.85;1.58;;;;;;;25.70;33.83;95510.03;4981416;28;20219;-84
2022/05/22 09:29:31;;;;;;;1.95;1.60;;;;;;;25.92;35.08;95501.72;4994291;28;20238;-84
2022/05/22 09:32:27;;;;;;;;;;;;;;;;;;;;;
2022/05/22 09:38:26;;;;;;;2.30;1.63;;;;;;;26.30;33.29;95496.72;4961776;28;20196;-83
2022/05/22 09:41:04;;;;;;;5.93;4.35;;;;;;;26.41;33.52;95490.25;4967442;28;20537;-84
2022/05/22 09:43:55;;;;;;;7.20;6.50;;;;;;;26.48;33.02;95488.09;4981737;28;20292;-84
2022/05/22 09:49:46;;;;;;;3.00;2.40;;;;;;;26.72;33.25;95477.56;4926106;28;20232;-83
2022/05/22 09:52:29;;;;;;;4.57;2.00;;;;;;;26.82;32.41;95472.94;4973587;28;20196;-82
2022/05/22 09:55:56;;;;;;;;;;;;;;;;;;;;;
2022/05/22 09:58:49;;;;;;;2.72;1.65;;;;;;;26.81;31.79;95467.94;4977319;28;20227;-82
2022/05/22 10:01:24;;;;;;;2.63;1.75;;;;;;;26.65;31.09;95466.53;4970432;28;20216;-83
2022/05/22 10:03:59;;;;;;;2.47;1.42;;;;;;;26.50;31.11;95459.56;4980858;28;20291;-81
2022/05/22 10:06:36;;;;;;;1.52;1.42;;;;;;;26.51;30.42;95455.06;4976730;28;21028;-83
2022/05/22 10:09:20;;;;;;;3.33;1.60;;;;;;;26.26;30.20;95453.41;4973626;28;20911;-82
2022/05/22 10:11:59;;;;;;;3.30;1.50;;;;;;;26.19;30.74;95443.16;4983387;28;20761;-83
2022/05/22 10:14:43;;;;;;;1.70;1.60;;;;;;;26.17;30.93;95436.63;4985294;28;20251;-83
2022/05/22 10:17:26;;;;;;;4.13;1.70;;;;;;;26.24;31.79;95447.63;4970558;28;20646;-82
2022/05/22 10:20:03;;;;;;;2.45;1.75;;;;;;;26.62;31.09;95446.72;4985751;28;20282;-83
2022/05/22 10:22:39;;;;;;;3.97;2.22;;;;;;;26.81;30.83;95444.16;4990489;28;20195;-82
2022/05/22 10:25:20;;;;;;;2.85;1.80;;;;;;;26.96;29.78;95443.97;4975044;28;20277;-84
2022/05/22 10:27:55;;;;;;;2.83;1.50;;;;;;;26.63;29.46;95447.53;4984453;28;20319;-84
2022/05/22 10:30:27;;;;;;;2.17;1.55;;;;;;;26.72;29.78;95435.28;4994694;28;20223;-85
2022/05/22 10:33:00;;;;;;;2.47;1.42;;;;;;;27.00;29.84;95436.28;4984866;28;20735;-84
2022/05/22 10:35:31;;;;;;;2.75;1.40;;;;;;;27.14;30.03;95434.50;4983651;28;20208;-84
2022/05/22 10:38:04;;;;;;;4.85;1.80;;;;;;;27.36;30.38;95436.59;4978643;28;20298;-84
2022/05/22 10:42:44;;;;;;;4.07;1.40;;;;;;;27.32;29.94;95427.69;4985719;28;20227;-84
2022/05/22 10:43:17;;;;;;;2.28;1.60;;;;;;;27.31;29.99;95431.41;4980197;28;20204;-84
2022/05/22 10:45:43;;;;;;;6.82;6.20;;;;;;;27.44;30.01;95418.25;4982989;28;20295;-83
2022/05/22 10:48:17;;;;;;;6.85;6.15;;;;;;;27.56;29.64;95422.28;4986053;28;20313;-84
2022/05/22 10:50:52;;;;;;;2.65;2.13;;;;;;;27.76;29.16;95414.88;4986453;28;20227;-84
2022/05/22 10:53:24;;;;;;;2.63;1.65;;;;;;;27.89;29.53;95412.56;4983999;28;20201;-84
2022/05/22 10:55:52;;;;;;;3.10;1.85;;;;;;;27.90;29.28;95414.16;4990717;28;20199;-84
2022/05/22 10:58:25;;;;;;;3.30;1.70;;;;;;;27.90;28.23;95408.84;4988617;28;20785;-84
2022/05/22 11:00:57;;;;;;;2.17;1.52;;;;;;;27.95;28.97;95406.88;4984035;28;20662;-84
2022/05/22 11:03:30;;;;;;;4.28;1.50;;;;;;;27.97;28.80;95388.84;4983477;28;20303;-84
2022/05/22 11:06:03;;;;;;;2.40;1.55;;;;;;;28.06;27.87;95389.78;4988136;28;20205;-85
2022/05/22 11:08:34;;;;;;;1.85;1.58;;;;;;;27.97;28.18;95385.41;4980251;28;20227;-84
2022/05/22 11:11:18;;;;;;;1.60;1.13;;;;;;;27.59;28.20;95382.88;4977862;28;20230;-84
2022/05/22 11:13:45;;;;;;;1.70;1.50;;;;;;;27.68;28.16;95380.34;4978945;28;20291;-85
2022/05/22 11:16:17;;;;;;;3.08;1.33;;;;;;;27.85;29.02;95381.38;4987815;28;20228;-84
2022/05/22 11:18:45;;;;;;;1.67;1.52;;;;;;;27.69;27.79;95374.78;4981796;28;20786;-84
2022/05/22 11:21:30;;;;;;;2.97;1.48;;;;;;;27.66;28.46;95374.56;4982630;28;20219;-83
2022/05/22 11:24:13;;;;;;;11.18;8.98;;;;;;;27.74;28.87;95369.38;4987159;28;20200;-84
2022/05/22 11:26:53;;;;;;;5.78;4.90;;;;;;;27.85;28.36;95370.81;4984740;28;20235;-84
2022/05/22 11:29:38;;;;;;;1.92;1.38;;;;;;;27.71;29.16;95372.59;4988653;28;20292;-84
2022/05/22 11:32:12;;;;;;;2.20;1.60;;;;;;;27.72;28.61;95368.09;4982769;28;20203;-84
2022/05/22 11:35:03;;;;;;;1.80;1.40;;;;;;;27.78;28.93;95370.38;4990938;28;20200;-84
2022/05/22 11:37:45;;;;;;;1.20;1.08;;;;;;;27.84;28.01;95369.22;4983928;28;20259;-84
2022/05/22 11:40:23;;;;;;;1.40;1.30;;;;;;;27.90;27.86;95369.16;4957487;28;20234;-84
2022/05/22 11:42:58;;;;;;;1.30;1.20;;;;;;;27.78;28.09;95367.72;4982836;28;20247;-84
2022/05/22 11:45:38;;;;;;;1.65;1.30;;;;;;;27.98;27.80;95357.88;4987544;28;20200;-84
2022/05/22 11:48:22;;;;;;;1.75;1.30;;;;;;;28.10;27.21;95350.22;4982782;28;20230;-84
2022/05/22 11:50:58;;;;;;;3.13;1.50;;;;;;;28.11;26.25;95343.88;4983268;28;20245;-84
2022/05/22 11:54:01;;;;;;;2.70;2.50;;;;;;;28.35;27.79;95347.16;4985792;28;20714;-84
2022/05/22 11:56:43;;;;;;;7.93;7.22;;;;;;;28.46;26.61;95345.88;4984844;28;20679;-84
2022/05/22 11:59:25;;;;;;;2.50;1.80;;;;;;;28.44;27.67;95341.97;4977077;28;20258;-84
2022/05/22 12:01:59;;;;;;;2.45;1.60;;;;;;;28.43;26.87;95338.53;4980487;28;20228;-84
2022/05/22 12:04:42;;;;;;;1.80;1.25;;;;;;;28.46;27.70;95340.59;4982179;28;20627;-84
2022/05/22 12:07:33;;;;;;;1.30;1.20;;;;;;;28.50;28.39;95338.91;4981435;28;20224;-84
2022/05/22 12:10:07;;;;;;;2.63;1.50;;;;;;;28.58;27.64;95326.03;4981429;28;20636;-84
2022/05/22 12:12:40;;;;;;;2.38;1.80;;;;;;;28.73;27.49;95318.56;4985036;28;20249;-84
2022/05/22 12:15:22;;;;;;;2.95;1.70;;;;;;;28.84;26.74;95317.31;4966874;28;20212;-84
2022/05/22 12:17:58;;;;;;;1.70;1.30;;;;;;;28.83;26.55;95318.38;4983147;28;20203;-84
2022/05/22 12:20:32;;;;;;;3.00;1.50;;;;;;;28.82;26.71;95321.34;4979752;28;20227;-84
2022/05/22 12:23:14;;;;;;;1.35;1.17;;;;;;;28.80;26.29;95313.69;4983974;28;20664;-81
2022/05/22 12:25:44;;;;;;;2.65;1.98;;;;;;;28.77;26.56;95319.53;4983998;28;20611;-82
2022/05/22 12:28:41;;;;;;;1.90;1.45;;;;;;;28.86;26.62;95314.34;4979924;28;20251;-84
2022/05/22 12:31:13;;;;;;;6.10;1.90;;;;;;;28.90;26.53;95309.22;4971502;28;20805;-85
2022/05/22 12:33:59;;;;;;;1.92;1.20;;;;;;;28.84;25.87;95303.25;4972339;28;20723;-86
2022/05/22 12:36:31;;;;;;;1.20;1.10;;;;;;;28.86;25.82;95309.81;4982055;28;20219;-81
2022/05/22 12:39:03;;;;;;;2.92;1.30;;;;;;;28.88;25.65;95304.22;4983525;28;20235;-83
2022/05/22 12:41:43;;;;;;;1.55;1.10;;;;;;;28.90;25.52;95304.69;4979780;28;20224;-81
2022/05/22 12:44:11;;;;;;;3.58;1.63;;;;;;;28.93;26.79;95298.03;4975849;28;20216;-81
2022/05/22 12:46:39;;;;;;;1.63;1.10;;;;;;;28.90;26.52;95298.63;4970961;28;20212;-83
2022/05/22 12:49:09;;;;;;;1.33;1.20;;;;;;;28.96;26.40;95306.16;4973068;28;20680;-81
2022/05/22 12:51:37;;;;;;;3.75;1.15;;;;;;;29.11;26.21;95316.41;4977998;28;20795;-83
2022/05/22 12:54:21;;;;;;;2.03;1.00;;;;;;;29.20;25.20;95311.19;4976471;28;20258;-82
2022/05/22 12:56:48;;;;;;;1.27;1.00;;;;;;;28.97;24.35;95313.03;4982684;28;20219;-81
2022/05/22 12:59:21;;;;;;;4.60;1.50;;;;;;;29.14;25.85;95312.38;4983775;28;20192;-84
2022/05/22 13:01:49;;;;;;;2.45;1.33;;;;;;;29.33;24.77;95301.59;4980522;28;20894;-84
2022/05/22 13:04:26;;;;;;;1.10;1.00;;;;;;;29.34;25.26;95298.66;4978858;28;20355;-83
2022/05/22 13:06:56;;;;;;;2.63;1.35;;;;;;;29.09;26.00;95296.59;4981576;28;20285;-84
2022/05/22 13:09:35;;;;;;;2.75;1.00;;;;;;;29.12;25.32;95293.34;4984764;28;20219;-84
2022/05/22 13:12:06;;;;;;;2.92;1.13;;;;;;;29.18;25.14;95282.31;4984768;28;20212;-83